Time;durP1;ratioP1;P1;durP2;ratioP2;P2;SDS_P1;SDS_P2;PMS_P1;PMS_P2;Temp;Humidity;BMP_temperature;BMP_pressure;BME280_temperature;BME280_humidity;BME280_pressure;Samples;Min_cycle;Max_cycle;Signal;HPM_P1;HPM_P2
2023/03/25 00:00:48;;;;;;;3.95;1.20;;;;;;;;;;5071426;28;20031;-68
2023/03/25 00:03:14;;;;;;;4.72;1.17;;;;;;;;;;5071633;28;20033;-69
2023/03/25 00:05:40;;;;;;;3.15;0.93;;;;;;;;;;5069915;28;20400;-68
2023/03/25 00:08:06;;;;;;;4.40;1.17;;;;;;;;;;5071495;28;20024;-70
2023/03/25 00:10:32;;;;;;;4.93;1.10;;;;;;;;;;5071347;28;20031;-69
2023/03/25 00:13:03;;;;;;;5.32;1.70;;;;;;;;;;5071283;28;20021;-70
2023/03/25 00:15:32;;;;;;;4.30;1.40;;;;;;;;;;5071268;28;20096;-71
2023/03/25 00:17:58;;;;;;;6.03;1.77;;;;;;;;;;5071580;28;20032;-70
2023/03/25 00:20:26;;;;;;;2.95;1.00;;;;;;;;;;5071142;28;20032;-69
2023/03/25 00:22:53;;;;;;;4.38;1.55;;;;;;;;;;5071487;28;20036;-70
2023/03/25 00:25:19;;;;;;;5.75;1.35;;;;;;;;;;5071337;28;20419;-69
2023/03/25 00:27:46;;;;;;;4.68;1.52;;;;;;;;;;5071216;28;20029;-71
2023/03/25 00:30:13;;;;;;;6.07;1.80;;;;;;;;;;5071464;28;20103;-71
2023/03/25 00:32:39;;;;;;;2.90;1.35;;;;;;;;;;5071069;28;20025;-69
2023/03/25 00:35:07;;;;;;;5.53;1.27;;;;;;;;;;5070651;28;20047;-71
2023/03/25 00:37:33;;;;;;;4.50;1.52;;;;;;;;;;5070937;28;20024;-70
2023/03/25 00:39:59;;;;;;;5.03;1.08;;;;;;;;;;5071287;28;20028;-70
2023/03/25 00:42:25;;;;;;;6.35;1.80;;;;;;;;;;5071430;28;20025;-68
2023/03/25 00:44:52;;;;;;;2.67;1.20;;;;;;;;;;5070042;28;20056;-69
2023/03/25 00:47:19;;;;;;;4.03;1.27;;;;;;;;;;5071188;28;20020;-71
2023/03/25 00:49:45;;;;;;;4.60;1.30;;;;;;;;;;5070539;28;20028;-70
2023/03/25 00:52:12;;;;;;;5.40;1.55;;;;;;;;;;5071099;28;20034;-71
2023/03/25 00:54:38;;;;;;;4.40;1.10;;;;;;;;;;5070830;28;20112;-70
2023/03/25 00:57:04;;;;;;;5.43;1.23;;;;;;;;;;5071072;28;20048;-69
2023/03/25 00:59:30;;;;;;;6.75;2.22;;;;;;;;;;5070805;28;20036;-67
2023/03/25 01:01:57;;;;;;;6.90;2.00;;;;;;;;;;5071298;28;20017;-69
2023/03/25 01:04:23;;;;;;;6.82;1.70;;;;;;;;;;5075142;28;20412;-70
2023/03/25 01:06:52;;;;;;;5.65;1.42;;;;;;;;;;5074761;28;20020;-71
2023/03/25 01:09:19;;;;;;;2.95;1.20;;;;;;;;;;5075090;28;20024;-71
2023/03/25 01:11:45;;;;;;;5.10;1.38;;;;;;;;;;5074785;28;20138;-69
2023/03/25 01:14:13;;;;;;;3.40;1.23;;;;;;;;;;5075021;28;20020;-68
2023/03/25 01:16:39;;;;;;;4.53;1.23;;;;;;;;;;5074702;28;20414;-69
2023/03/25 01:19:05;;;;;;;5.60;1.45;;;;;;;;;;5074296;28;20037;-69
2023/03/25 01:21:35;;;;;;;4.32;1.08;;;;;;;;;;5074416;28;20094;-67
2023/03/25 01:24:02;;;;;;;5.07;1.23;;;;;;;;;;5074743;28;20064;-66
2023/03/25 01:26:29;;;;;;;3.38;1.08;;;;;;;;;;5074486;28;20451;-69
2023/03/25 01:28:55;;;;;;;5.75;1.40;;;;;;;;;;5075037;28;20070;-66
2023/03/25 01:31:29;;;;;;;5.25;1.63;;;;;;;;;;5074552;28;20029;-69
2023/03/25 01:33:56;;;;;;;4.50;1.10;;;;;;;;;;5074431;28;20024;-67
2023/03/25 01:36:23;;;;;;;4.25;1.10;;;;;;;;;;5075123;28;20099;-70
2023/03/25 01:38:50;;;;;;;6.75;1.95;;;;;;;;;;5074315;28;20033;-67
2023/03/25 01:41:16;;;;;;;7.70;1.60;;;;;;;;;;5074508;28;20407;-69
2023/03/25 01:43:42;;;;;;;8.30;1.95;;;;;;;;;;5074040;28;20484;-69
2023/03/25 01:46:12;;;;;;;5.80;1.30;;;;;;;;;;5074361;28;20029;-69
2023/03/25 01:48:40;;;;;;;5.05;1.30;;;;;;;;;;5073697;28;20060;-69
2023/03/25 01:51:11;;;;;;;6.72;1.80;;;;;;;;;;5074200;28;20021;-69
2023/03/25 01:53:37;;;;;;;3.50;1.10;;;;;;;;;;5073962;28;20063;-66
2023/03/25 01:56:04;;;;;;;4.03;1.45;;;;;;;;;;5074256;28;20056;-67
2023/03/25 01:58:31;;;;;;;5.35;1.45;;;;;;;;;;5073937;28;20035;-69
2023/03/25 02:00:57;;;;;;;6.15;1.40;;;;;;;;;;5072761;28;20021;-67
2023/03/25 02:03:24;;;;;;;4.38;1.20;;;;;;;;;;5073699;28;20040;-70
2023/03/25 02:05:50;;;;;;;4.30;1.30;;;;;;;;;;5073178;28;20146;-66
2023/03/25 02:08:17;;;;;;;5.95;1.50;;;;;;;;;;5073966;28;20500;-68
2023/03/25 02:10:46;;;;;;;3.58;1.35;;;;;;;;;;5072217;28;20025;-69
2023/03/25 02:13:13;;;;;;;3.75;0.93;;;;;;;;;;5073698;28;20021;-70
2023/03/25 02:15:44;;;;;;;4.07;1.30;;;;;;;;;;5072211;28;20025;-68
2023/03/25 02:18:18;;;;;;;5.43;1.65;;;;;;;;;;5073425;28;20035;-69
2023/03/25 02:20:53;;;;;;;5.25;1.45;;;;;;;;;;5073304;28;20111;-69
2023/03/25 02:23:31;;;;;;;4.73;1.50;;;;;;;;;;5073406;28;20028;-71
2023/03/25 02:26:03;;;;;;;5.65;1.45;;;;;;;;;;5073529;28;20625;-66
2023/03/25 02:28:29;;;;;;;4.75;1.42;;;;;;;;;;5073005;28;20028;-70
2023/03/25 02:31:06;;;;;;;6.07;1.50;;;;;;;;;;5073841;28;20073;-69
2023/03/25 02:33:36;;;;;;;5.18;1.52;;;;;;;;;;5073275;28;20028;-67
2023/03/25 02:36:08;;;;;;;5.72;1.40;;;;;;;;;;5073441;28;20029;-68
2023/03/25 02:38:42;;;;;;;4.15;1.17;;;;;;;;;;5073132;28;20127;-70
2023/03/25 02:41:11;;;;;;;5.90;1.63;;;;;;;;;;5073100;28;20029;-70
2023/03/25 02:43:57;;;;;;;7.22;1.45;;;;;;;;;;5072618;28;20063;-71
2023/03/25 02:46:25;;;;;;;7.80;1.75;;;;;;;;;;5073410;28;20020;-70
2023/03/25 02:48:58;;;;;;;8.52;1.65;;;;;;;;;;5073307;28;20028;-70
2023/03/25 02:51:26;;;;;;;6.20;1.70;;;;;;;;;;5073400;28;20021;-68
2023/03/25 02:53:54;;;;;;;4.55;1.50;;;;;;;;;;5073385;28;20020;-68
2023/03/25 02:56:24;;;;;;;7.53;1.17;;;;;;;;;;5073008;28;20047;-70
2023/03/25 02:58:54;;;;;;;6.55;1.73;;;;;;;;;;5072227;28;20044;-70
2023/03/25 03:01:21;;;;;;;6.93;1.70;;;;;;;;;;5072877;28;20036;-67
2023/03/25 03:03:47;;;;;;;6.38;1.58;;;;;;;;;;5072442;28;20064;-69
2023/03/25 03:06:17;;;;;;;4.22;1.48;;;;;;;;;;5072851;28;20020;-67
2023/03/25 03:08:46;;;;;;;7.20;1.73;;;;;;;;;;5071343;28;20082;-66
2023/03/25 03:11:16;;;;;;;6.15;1.73;;;;;;;;;;5072667;28;20064;-65
2023/03/25 03:14:00;;;;;;;5.50;1.60;;;;;;;;;;5071782;28;20438;-66
2023/03/25 03:16:30;;;;;;;5.40;1.80;;;;;;;;;;5072424;28;20058;-67
2023/03/25 03:18:57;;;;;;;6.40;1.30;;;;;;;;;;5072481;28;20039;-68
2023/03/25 03:21:29;;;;;;;5.65;1.70;;;;;;;;;;5072923;28;20025;-68
2023/03/25 03:23:57;;;;;;;4.95;1.58;;;;;;;;;;5072439;28;20119;-68
2023/03/25 03:26:32;;;;;;;4.15;1.50;;;;;;;;;;5072094;28;20020;-69
2023/03/25 03:29:09;;;;;;;4.10;1.20;;;;;;;;;;5071994;28;20109;-68
2023/03/25 03:31:40;;;;;;;5.38;1.50;;;;;;;;;;5071986;28;20489;-67
2023/03/25 03:34:13;;;;;;;5.68;1.92;;;;;;;;;;5072353;28;20036;-66
2023/03/25 03:36:43;;;;;;;5.03;1.42;;;;;;;;;;5072030;28;20027;-65
2023/03/25 03:39:15;;;;;;;4.88;1.42;;;;;;;;;;5071830;28;20033;-66
2023/03/25 03:41:43;;;;;;;5.05;1.42;;;;;;;;;;5071927;28;20025;-68
2023/03/25 03:44:14;;;;;;;8.15;1.95;;;;;;;;;;5071576;28;20492;-65
2023/03/25 03:46:49;;;;;;;7.05;1.67;;;;;;;;;;5071708;28;20028;-65
2023/03/25 03:49:17;;;;;;;8.93;1.98;;;;;;;;;;5071883;28;20031;-68
2023/03/25 03:51:46;;;;;;;5.32;1.42;;;;;;;;;;5071674;28;20099;-67
2023/03/25 03:54:25;;;;;;;6.85;1.90;;;;;;;;;;5071793;28;20468;-69
2023/03/25 03:57:15;;;;;;;5.53;1.50;;;;;;;;;;5071870;28;20518;-65
2023/03/25 03:59:46;;;;;;;4.90;1.33;;;;;;;;;;5068389;28;20110;-70
2023/03/25 04:02:16;;;;;;;5.30;1.48;;;;;;;;;;5071237;28;20028;-69
2023/03/25 04:04:42;;;;;;;6.50;1.48;;;;;;;;;;5071230;28;20037;-69
2023/03/25 04:07:13;;;;;;;8.75;1.52;;;;;;;;;;5071593;28;20023;-69
2023/03/25 04:09:44;;;;;;;5.32;1.20;;;;;;;;;;5069964;28;20051;-66
2023/03/25 04:12:19;;;;;;;6.63;1.70;;;;;;;;;;5070982;28;20488;-67
2023/03/25 04:14:45;;;;;;;9.13;2.25;;;;;;;;;;5070098;28;20024;-67
2023/03/25 04:17:11;;;;;;;7.35;1.52;;;;;;;;;;5071412;28;20499;-65
2023/03/25 04:19:37;;;;;;;4.95;1.10;;;;;;;;;;5071029;28;20090;-65
2023/03/25 04:22:04;;;;;;;7.05;1.63;;;;;;;;;;5071406;28;20029;-68
2023/03/25 04:24:30;;;;;;;5.40;1.67;;;;;;;;;;5070985;28;20037;-65
2023/03/25 04:27:03;;;;;;;8.63;1.55;;;;;;;;;;5070971;28;20381;-66
2023/03/25 04:29:30;;;;;;;8.25;1.98;;;;;;;;;;5070847;28;20024;-68
2023/03/25 04:31:56;;;;;;;3.08;1.30;;;;;;;;;;5071449;28;20039;-64
2023/03/25 04:34:22;;;;;;;3.97;1.40;;;;;;;;;;5071419;28;20099;-70
2023/03/25 04:36:51;;;;;;;5.60;1.50;;;;;;;;;;5070106;28;20103;-66
2023/03/25 04:39:21;;;;;;;5.10;1.50;;;;;;;;;;5071211;28;20465;-68
2023/03/25 04:41:47;;;;;;;4.20;1.23;;;;;;;;;;5070523;28;20028;-68
2023/03/25 04:44:13;;;;;;;6.18;1.50;;;;;;;;;;5071070;28;20435;-65
2023/03/25 04:46:40;;;;;;;5.53;1.33;;;;;;;;;;5069471;28;20115;-64
2023/03/25 04:49:13;;;;;;;4.65;1.42;;;;;;;;;;5071055;28;20029;-66
2023/03/25 04:51:43;;;;;;;6.60;1.58;;;;;;;;;;5070683;28;20028;-70
2023/03/25 04:54:09;;;;;;;6.45;1.92;;;;;;;;;;5069598;28;20031;-65
2023/03/25 04:56:36;;;;;;;6.13;2.03;;;;;;;;;;5070406;28;20493;-65
2023/03/25 04:59:03;;;;;;;7.63;1.65;;;;;;;;;;5070995;28;20035;-67
2023/03/25 05:01:30;;;;;;;4.43;1.63;;;;;;;;;;5070845;28;20445;-68
2023/03/25 05:04:06;;;;;;;4.60;1.50;;;;;;;;;;5070867;28;20032;-66
2023/03/25 05:06:37;;;;;;;4.88;1.70;;;;;;;;;;5070572;28;20122;-67
2023/03/25 05:09:03;;;;;;;5.28;1.13;;;;;;;;;;5070758;28;20068;-67
2023/03/25 05:11:30;;;;;;;3.67;1.23;;;;;;;;;;5070393;28;20051;-68
2023/03/25 05:13:56;;;;;;;6.03;1.67;;;;;;;;;;5070942;28;20100;-64
2023/03/25 05:16:22;;;;;;;5.45;1.52;;;;;;;;;;5071045;28;20024;-67
2023/03/25 05:18:48;;;;;;;4.85;1.73;;;;;;;;;;5070545;28;20096;-66
2023/03/25 05:21:14;;;;;;;4.60;1.60;;;;;;;;;;5070537;28;20057;-64
2023/03/25 05:23:40;;;;;;;6.13;1.60;;;;;;;;;;5070380;28;20041;-65
2023/03/25 05:26:07;;;;;;;7.25;1.95;;;;;;;;;;5070219;28;20036;-65
2023/03/25 05:28:34;;;;;;;5.65;1.60;;;;;;;;;;5070503;28;20082;-65
2023/03/25 05:31:07;;;;;;;5.90;1.45;;;;;;;;;;5070662;28;20566;-70
2023/03/25 05:33:33;;;;;;;5.07;1.48;;;;;;;;;;5070271;28;20024;-68
2023/03/25 05:36:00;;;;;;;5.45;1.10;;;;;;;;;;5070707;28;20025;-69
2023/03/25 05:38:26;;;;;;;5.05;1.20;;;;;;;;;;5070724;28;20036;-65
2023/03/25 05:40:52;;;;;;;5.78;1.67;;;;;;;;;;5070489;28;20136;-64
2023/03/25 05:43:21;;;;;;;7.80;1.60;;;;;;;;;;5070471;28;20107;-69
2023/03/25 05:45:47;;;;;;;5.38;1.52;;;;;;;;;;5070230;28;20028;-70
2023/03/25 05:48:13;;;;;;;4.25;1.50;;;;;;;;;;5071204;28;20630;-66
2023/03/25 05:50:42;;;;;;;7.82;1.67;;;;;;;;;;5073624;28;20052;-69
2023/03/25 05:53:11;;;;;;;8.80;1.48;;;;;;;;;;5073808;28;20019;-70
2023/03/25 05:55:37;;;;;;;7.57;2.17;;;;;;;;;;5073710;28;20128;-67
2023/03/25 05:58:03;;;;;;;6.55;1.83;;;;;;;;;;5074126;28;20099;-68
2023/03/25 06:00:29;;;;;;;5.65;1.50;;;;;;;;;;5073082;28;20391;-69
2023/03/25 06:02:57;;;;;;;6.45;1.70;;;;;;;;;;5073012;28;20028;-65
2023/03/25 06:05:24;;;;;;;6.68;1.60;;;;;;;;;;5074432;28;20035;-63
2023/03/25 06:07:54;;;;;;;8.90;1.40;;;;;;;;;;5073521;28;20060;-66
2023/03/25 06:10:21;;;;;;;4.53;1.60;;;;;;;;;;5073686;28;20033;-62
2023/03/25 06:12:47;;;;;;;5.60;1.60;;;;;;;;;;5073541;28;20025;-65
2023/03/25 06:15:17;;;;;;;7.55;1.85;;;;;;;;;;5073087;28;20040;-65
2023/03/25 06:17:45;;;;;;;6.50;2.00;;;;;;;;;;5073470;28;20020;-66
2023/03/25 06:20:11;;;;;;;9.25;1.65;;;;;;;;;;5073603;28;20040;-66
2023/03/25 06:22:44;;;;;;;10.73;2.00;;;;;;;;;;5073295;28;20029;-62
2023/03/25 06:25:11;;;;;;;5.57;1.63;;;;;;;;;;5073496;28;20036;-64
2023/03/25 06:27:40;;;;;;;7.05;1.83;;;;;;;;;;5073177;28;20024;-66
2023/03/25 06:30:10;;;;;;;4.63;1.40;;;;;;;;;;5073352;28;20577;-67
2023/03/25 06:32:37;;;;;;;5.50;1.80;;;;;;;;;;5073200;28;20104;-65
2023/03/25 06:35:04;;;;;;;10.18;2.03;;;;;;;;;;5073416;28;20154;-63
2023/03/25 06:37:30;;;;;;;7.72;1.98;;;;;;;;;;5073130;28;20024;-72
2023/03/25 06:39:58;;;;;;;7.63;1.83;;;;;;;;;;5073777;28;20142;-61
2023/03/25 06:42:24;;;;;;;7.22;1.33;;;;;;;;;;5073664;28;20032;-68
2023/03/25 06:44:50;;;;;;;8.80;2.03;;;;;;;;;;5072711;28;20111;-70
2023/03/25 06:47:16;;;;;;;8.00;2.13;;;;;;;;;;5073152;28;20112;-63
2023/03/25 06:49:42;;;;;;;8.77;1.50;;;;;;;;;;5072923;28;20028;-67
2023/03/25 06:52:08;;;;;;;10.05;2.13;;;;;;;;;;5072456;28;20024;-70
2023/03/25 06:54:34;;;;;;;8.57;2.35;;;;;;;;;;5072765;28;20389;-67
2023/03/25 06:57:00;;;;;;;7.50;1.90;;;;;;;;;;5073119;28;20047;-62
2023/03/25 06:59:26;;;;;;;7.97;1.55;;;;;;;;;;5072147;28;20544;-66
2023/03/25 07:01:52;;;;;;;8.70;2.47;;;;;;;;;;5072401;28;20016;-67
2023/03/25 07:04:18;;;;;;;9.18;1.77;;;;;;;;;;5072642;28;20028;-70
2023/03/25 07:06:44;;;;;;;6.82;1.83;;;;;;;;;;5072390;28;20384;-63
2023/03/25 07:09:10;;;;;;;8.57;2.15;;;;;;;;;;5072770;28;20036;-73
2023/03/25 07:11:36;;;;;;;6.88;1.92;;;;;;;;;;5072322;28;20017;-61
2023/03/25 07:14:02;;;;;;;8.48;2.03;;;;;;;;;;5072663;28;20021;-73
2023/03/25 07:16:28;;;;;;;6.82;1.60;;;;;;;;;;5072037;28;20036;-71
2023/03/25 07:18:55;;;;;;;7.68;1.90;;;;;;;;;;5072751;28;20410;-64
2023/03/25 07:21:21;;;;;;;10.15;2.30;;;;;;;;;;5072590;28;20032;-70
2023/03/25 07:23:48;;;;;;;7.50;1.83;;;;;;;;;;5072124;28;20048;-70
2023/03/25 07:26:14;;;;;;;12.20;2.05;;;;;;;;;;5072379;28;20032;-72
2023/03/25 07:28:40;;;;;;;9.18;2.20;;;;;;;;;;5071347;28;20497;-75
2023/03/25 07:31:16;;;;;;;12.23;2.40;;;;;;;;;;5071998;28;20166;-73
2023/03/25 07:33:42;;;;;;;7.97;2.33;;;;;;;;;;5072216;28;20017;-70
2023/03/25 07:36:10;;;;;;;10.95;1.92;;;;;;;;;;5072330;28;20052;-71
2023/03/25 07:38:36;;;;;;;7.85;2.08;;;;;;;;;;5072415;28;20020;-70
2023/03/25 07:41:09;;;;;;;5.95;1.80;;;;;;;;;;5072077;28;20032;-68
2023/03/25 07:43:35;;;;;;;10.55;2.70;;;;;;;;;;5071794;28;20068;-68
2023/03/25 07:46:01;;;;;;;6.57;1.83;;;;;;;;;;5072314;28;20095;-66
2023/03/25 07:48:27;;;;;;;11.05;2.20;;;;;;;;;;5070995;28;20028;-70
2023/03/25 07:50:53;;;;;;;12.25;2.53;;;;;;;;;;5070929;28;20104;-65
2023/03/25 07:53:19;;;;;;;11.30;2.97;;;;;;;;;;5070751;28;20115;-67
2023/03/25 07:55:45;;;;;;;7.30;1.80;;;;;;;;;;5071190;28;20032;-61
2023/03/25 07:58:12;;;;;;;7.00;1.98;;;;;;;;;;5071786;28;20488;-66
2023/03/25 08:00:38;;;;;;;6.65;2.10;;;;;;;;;;5070191;28;20023;-64
2023/03/25 08:03:05;;;;;;;10.98;2.28;;;;;;;;;;5071605;28;20036;-69
2023/03/25 08:05:31;;;;;;;8.38;2.00;;;;;;;;;;5071060;28;20021;-66
2023/03/25 08:08:00;;;;;;;13.15;2.72;;;;;;;;;;5071703;28;20389;-65
2023/03/25 08:10:26;;;;;;;7.18;2.05;;;;;;;;;;5071789;28;20030;-62
2023/03/25 08:12:53;;;;;;;8.85;2.38;;;;;;;;;;5071721;28;20086;-66
2023/03/25 08:15:20;;;;;;;6.55;2.75;;;;;;;;;;5071785;28;20024;-66
2023/03/25 08:17:46;;;;;;;8.65;2.88;;;;;;;;;;5071444;28;20031;-61
2023/03/25 08:20:13;;;;;;;9.80;2.40;;;;;;;;;;5071226;28;20507;-64
2023/03/25 08:22:39;;;;;;;8.82;3.00;;;;;;;;;;5071245;28;20025;-70
2023/03/25 08:25:06;;;;;;;8.68;2.28;;;;;;;;;;5071287;28;20450;-70
2023/03/25 08:27:31;;;;;;;10.07;2.85;;;;;;;;;;5071008;28;20102;-69
2023/03/25 08:29:58;;;;;;;8.25;2.65;;;;;;;;;;5071458;28;20056;-64
2023/03/25 08:32:27;;;;;;;10.38;3.05;;;;;;;;;;5071494;28;20031;-69
2023/03/25 08:34:53;;;;;;;11.35;3.58;;;;;;;;;;5071753;28;20029;-65
2023/03/25 08:37:20;;;;;;;7.90;2.10;;;;;;;;;;5071161;28;20035;-76
2023/03/25 08:39:49;;;;;;;12.73;3.60;;;;;;;;;;5071153;28;20601;-65
2023/03/25 08:42:15;;;;;;;13.27;3.15;;;;;;;;;;5069797;28;20058;-70
2023/03/25 08:44:42;;;;;;;12.20;3.03;;;;;;;;;;5069768;28;20033;-64
2023/03/25 08:47:08;;;;;;;12.05;3.10;;;;;;;;;;5069443;28;20031;-61
2023/03/25 08:49:34;;;;;;;13.80;3.10;;;;;;;;;;5069098;28;20028;-66
2023/03/25 08:52:00;;;;;;;13.32;2.70;;;;;;;;;;5069442;28;20020;-65
2023/03/25 08:54:27;;;;;;;11.05;2.72;;;;;;;;;;5070415;28;20473;-61
2023/03/25 08:56:54;;;;;;;13.05;3.60;;;;;;;;;;5070768;28;20087;-68
2023/03/25 08:59:20;;;;;;;8.32;3.00;;;;;;;;;;5069724;28;20365;-68
2023/03/25 09:01:46;;;;;;;10.13;2.92;;;;;;;;;;5070314;28;20958;-68
2023/03/25 09:04:12;;;;;;;13.32;3.22;;;;;;;;;;5070992;28;20553;-61
2023/03/25 09:06:38;;;;;;;12.35;4.00;;;;;;;;;;5070883;28;20025;-65
2023/03/25 09:09:04;;;;;;;10.45;2.78;;;;;;;;;;5070966;28;20020;-61
2023/03/25 09:11:31;;;;;;;11.57;2.78;;;;;;;;;;5070421;28;20443;-62
2023/03/25 09:13:57;;;;;;;8.48;2.28;;;;;;;;;;5070666;28;20405;-62
2023/03/25 09:16:23;;;;;;;8.30;2.40;;;;;;;;;;5070739;28;20473;-61
2023/03/25 09:18:49;;;;;;;11.05;3.25;;;;;;;;;;5070204;28;20024;-63
2023/03/25 09:21:15;;;;;;;12.98;3.00;;;;;;;;;;5069791;28;20032;-61
2023/03/25 09:23:42;;;;;;;14.63;3.33;;;;;;;;;;5071798;28;20127;-61
2023/03/25 09:26:08;;;;;;;14.32;3.53;;;;;;;;;;5074556;28;20052;-64
2023/03/25 09:28:34;;;;;;;10.18;3.22;;;;;;;;;;5074567;28;20094;-66
2023/03/25 09:31:00;;;;;;;10.70;2.95;;;;;;;;;;5074831;28;20099;-67
2023/03/25 09:33:26;;;;;;;10.82;3.40;;;;;;;;;;5075008;28;20059;-70
2023/03/25 09:35:52;;;;;;;12.48;3.65;;;;;;;;;;5074942;28;20021;-63
2023/03/25 09:38:18;;;;;;;12.75;2.80;;;;;;;;;;5074659;28;20120;-64
2023/03/25 09:40:45;;;;;;;12.55;3.03;;;;;;;;;;5074374;28;20052;-62
2023/03/25 09:43:14;;;;;;;9.52;2.38;;;;;;;;;;5074408;28;20037;-65
2023/03/25 09:45:46;;;;;;;8.68;2.75;;;;;;;;;;5072756;28;20174;-65
2023/03/25 09:48:18;;;;;;;9.73;3.00;;;;;;;;;;5074307;28;20025;-63
2023/03/25 09:50:44;;;;;;;9.82;2.75;;;;;;;;;;5074144;28;20108;-61
2023/03/25 09:53:25;;;;;;;12.13;2.90;;;;;;;;;;5074274;28;20035;-65
2023/03/25 09:55:51;;;;;;;8.43;2.45;;;;;;;;;;5074554;28;20021;-65
2023/03/25 09:58:36;;;;;;;14.02;2.90;;;;;;;;;;5074448;28;20385;-66
2023/03/25 10:01:28;;;;;;;11.75;2.60;;;;;;;;;;5073460;28;20021;-68
2023/03/25 10:04:12;;;;;;;9.73;2.33;;;;;;;;;;5065082;28;20049;-66
2023/03/25 10:06:59;;;;;;;10.20;2.78;;;;;;;;;;5073741;28;20028;-65
2023/03/25 10:09:31;;;;;;;11.10;2.92;;;;;;;;;;5070429;28;20040;-70
2023/03/25 10:12:29;;;;;;;8.65;2.22;;;;;;;;;;5073973;28;20032;-66
2023/03/25 10:15:01;;;;;;;10.27;2.70;;;;;;;;;;5062207;28;20114;-68
2023/03/25 10:17:36;;;;;;;10.07;2.60;;;;;;;;;;5073644;28;20044;-70
2023/03/25 10:20:05;;;;;;;10.55;3.00;;;;;;;;;;5073865;28;20543;-69
2023/03/25 10:22:38;;;;;;;15.00;2.45;;;;;;;;;;5073366;28;20032;-67
2023/03/25 10:25:05;;;;;;;12.73;3.38;;;;;;;;;;5073540;28;20032;-72
2023/03/25 10:27:37;;;;;;;11.25;2.72;;;;;;;;;;5073586;28;20025;-64
2023/03/25 10:30:10;;;;;;;11.73;3.20;;;;;;;;;;5073760;28;20040;-66
2023/03/25 10:32:51;;;;;;;8.93;2.88;;;;;;;;;;5073408;28;20024;-70
2023/03/25 10:35:38;;;;;;;10.02;2.78;;;;;;;;;;5072092;28;20039;-70
2023/03/25 10:38:13;;;;;;;9.10;2.75;;;;;;;;;;5073369;28;20016;-73
2023/03/25 10:40:44;;;;;;;11.27;2.90;;;;;;;;;;5073273;28;20033;-66
2023/03/25 10:43:28;;;;;;;10.60;3.00;;;;;;;;;;5073430;28;20392;-72
2023/03/25 10:45:57;;;;;;;10.98;2.60;;;;;;;;;;5073543;28;20025;-66
2023/03/25 10:48:24;;;;;;;9.23;2.38;;;;;;;;;;5073510;28;20100;-63
2023/03/25 10:50:51;;;;;;;9.35;2.50;;;;;;;;;;5072211;28;20522;-68
2023/03/25 10:53:20;;;;;;;9.90;2.60;;;;;;;;;;5073108;28;20028;-68
2023/03/25 10:55:52;;;;;;;7.72;1.80;;;;;;;;;;5072794;28;20401;-63
2023/03/25 10:58:18;;;;;;;9.55;2.38;;;;;;;;;;5072890;28;20028;-61
2023/03/25 11:00:44;;;;;;;12.60;3.03;;;;;;;;;;5072854;28;20111;-64
2023/03/25 11:03:16;;;;;;;9.40;2.80;;;;;;;;;;5072962;28;20518;-68
2023/03/25 11:05:42;;;;;;;11.68;2.97;;;;;;;;;;5072182;28;20024;-61
2023/03/25 11:08:08;;;;;;;10.35;2.92;;;;;;;;;;5072515;28;20031;-60
2023/03/25 11:10:35;;;;;;;9.27;2.25;;;;;;;;;;5073867;28;20384;-64
2023/03/25 11:13:06;;;;;;;8.75;2.35;;;;;;;;;;5071970;28;20035;-61
2023/03/25 11:15:36;;;;;;;10.55;2.88;;;;;;;;;;5072165;28;20429;-61
2023/03/25 11:18:02;;;;;;;8.13;2.28;;;;;;;;;;5072800;28;20081;-61
2023/03/25 11:20:30;;;;;;;13.63;2.22;;;;;;;;;;5071926;28;20111;-65
2023/03/25 11:23:01;;;;;;;7.43;2.20;;;;;;;;;;5072715;28;20032;-61
2023/03/25 11:25:30;;;;;;;14.82;2.63;;;;;;;;;;5071019;28;20029;-69
2023/03/25 11:27:58;;;;;;;10.65;2.10;;;;;;;;;;5072691;28;20028;-65
2023/03/25 11:30:25;;;;;;;12.68;2.70;;;;;;;;;;5075676;28;20109;-67
2023/03/25 11:33:18;;;;;;;10.35;2.08;;;;;;;;;;5072571;28;20487;-66
2023/03/25 11:35:47;;;;;;;13.50;2.75;;;;;;;;;;5070282;28;20562;-65
2023/03/25 11:38:15;;;;;;;13.93;2.63;;;;;;;;;;5072312;28;20431;-69
2023/03/25 11:41:01;;;;;;;10.98;2.63;;;;;;;;;;5072104;28;20509;-64
2023/03/25 11:43:35;;;;;;;13.40;3.03;;;;;;;;;;5071927;28;20049;-72
2023/03/25 11:46:08;;;;;;;10.15;2.53;;;;;;;;;;5071546;28;20492;-66
2023/03/25 11:48:37;;;;;;;7.60;2.30;;;;;;;;;;5072253;28;20021;-65
2023/03/25 11:51:05;;;;;;;6.90;1.92;;;;;;;;;;5071417;28;20033;-65
2023/03/25 11:53:32;;;;;;;11.10;2.60;;;;;;;;;;5071818;28;20090;-66
2023/03/25 11:56:07;;;;;;;11.60;2.55;;;;;;;;;;5070715;28;20499;-63
2023/03/25 11:58:34;;;;;;;12.27;3.17;;;;;;;;;;5070921;28;20032;-67
2023/03/25 12:01:02;;;;;;;8.57;2.22;;;;;;;;;;5071675;28;20103;-65
2023/03/25 12:03:31;;;;;;;13.70;2.58;;;;;;;;;;5071613;28;20028;-63
2023/03/25 12:06:03;;;;;;;10.00;3.10;;;;;;;;;;5071874;28;20469;-66
2023/03/25 12:08:31;;;;;;;11.32;2.50;;;;;;;;;;5071477;28;20096;-62
2023/03/25 12:11:16;;;;;;;8.27;2.22;;;;;;;;;;5071688;28;20070;-62
2023/03/25 12:14:00;;;;;;;11.30;2.80;;;;;;;;;;5071397;28;20021;-64
2023/03/25 12:16:26;;;;;;;9.30;3.08;;;;;;;;;;5071527;28;20492;-62
2023/03/25 12:18:55;;;;;;;9.57;2.10;;;;;;;;;;5072054;28;20028;-63
2023/03/25 12:21:31;;;;;;;12.88;2.97;;;;;;;;;;5071984;28;20033;-69
2023/03/25 12:24:00;;;;;;;9.75;2.08;;;;;;;;;;5071377;28;20090;-62
2023/03/25 12:26:42;;;;;;;8.23;2.72;;;;;;;;;;5071067;28;20062;-67
2023/03/25 12:29:27;;;;;;;10.73;2.60;;;;;;;;;;5071421;28;20477;-67
2023/03/25 12:31:58;;;;;;;10.88;2.55;;;;;;;;;;5071766;28;20104;-65
2023/03/25 12:34:33;;;;;;;13.05;3.22;;;;;;;;;;5071759;28;20499;-63
2023/03/25 12:37:05;;;;;;;10.07;2.08;;;;;;;;;;5071394;28;20070;-62
2023/03/25 12:39:50;;;;;;;14.68;2.90;;;;;;;;;;5071096;28;20166;-63
2023/03/25 12:42:38;;;;;;;7.75;2.50;;;;;;;;;;5071200;28;20028;-68
2023/03/25 12:45:23;;;;;;;10.00;2.63;;;;;;;;;;5071205;28;20064;-65
2023/03/25 12:47:55;;;;;;;10.75;2.45;;;;;;;;;;5070988;28;20033;-66
2023/03/25 12:50:31;;;;;;;9.80;2.58;;;;;;;;;;5071161;28;20025;-68
2023/03/25 12:53:15;;;;;;;14.70;3.08;;;;;;;;;;5070921;28;20016;-64
2023/03/25 12:55:44;;;;;;;12.25;2.65;;;;;;;;;;5055896;28;20105;-65
2023/03/25 12:58:22;;;;;;;7.55;2.17;;;;;;;;;;5070177;28;20037;-60
2023/03/25 13:00:54;;;;;;;10.70;2.65;;;;;;;;;;5068690;28;20024;-62
2023/03/25 13:03:35;;;;;;;9.65;2.50;;;;;;;;;;5068167;28;20044;-61
2023/03/25 13:06:04;;;;;;;10.43;3.05;;;;;;;;;;5069624;28;20571;-72
2023/03/25 13:08:54;;;;;;;11.00;2.05;;;;;;;;;;5070769;28;20033;-67
2023/03/25 13:11:23;;;;;;;10.18;2.45;;;;;;;;;;5070998;28;20060;-68
2023/03/25 13:13:50;;;;;;;7.93;2.47;;;;;;;;;;5075931;28;20473;-66
2023/03/25 13:16:18;;;;;;;10.13;2.53;;;;;;;;;;5082046;28;20039;-70
2023/03/25 13:18:47;;;;;;;11.82;3.08;;;;;;;;;;5075270;28;20070;-62
2023/03/25 13:21:16;;;;;;;8.32;2.05;;;;;;;;;;5070612;28;20435;-67
2023/03/25 13:23:43;;;;;;;9.55;3.30;;;;;;;;;;5069116;28;20037;-61
2023/03/25 13:26:10;;;;;;;7.13;1.77;;;;;;;;;;5069417;28;20016;-67
2023/03/25 13:28:57;;;;;;;12.63;2.30;;;;;;;;;;5068836;28;20024;-61
2023/03/25 13:31:26;;;;;;;9.40;2.80;;;;;;;;;;5070672;28;20037;-60
2023/03/25 13:34:10;;;;;;;8.57;2.22;;;;;;;;;;5069886;28;20485;-74
2023/03/25 13:36:44;;;;;;;11.15;2.22;;;;;;;;;;5070335;28;20032;-61
2023/03/25 13:39:17;;;;;;;10.68;2.83;;;;;;;;;;5070650;28;20027;-62
2023/03/25 13:41:44;;;;;;;9.98;2.20;;;;;;;;;;5069314;28;20116;-60
2023/03/25 13:44:21;;;;;;;11.82;2.65;;;;;;;;;;5069901;28;20068;-60
2023/03/25 13:46:58;;;;;;;7.75;2.13;;;;;;;;;;5070022;28;20074;-61
2023/03/25 13:49:30;;;;;;;7.63;2.55;;;;;;;;;;5070618;28;20028;-61
2023/03/25 13:51:56;;;;;;;9.20;2.40;;;;;;;;;;5070944;28;20481;-65
2023/03/25 13:54:30;;;;;;;9.38;2.63;;;;;;;;;;5070909;28;20055;-66
2023/03/25 13:57:14;;;;;;;8.65;2.75;;;;;;;;;;5070555;28;20427;-61
2023/03/25 13:59:50;;;;;;;8.60;2.60;;;;;;;;;;5068435;28;20382;-61
2023/03/25 14:02:35;;;;;;;10.40;2.58;;;;;;;;;;5069906;28;20070;-63
2023/03/25 14:05:09;;;;;;;13.63;2.33;;;;;;;;;;5070518;28;20040;-72
2023/03/25 14:07:47;;;;;;;8.93;2.10;;;;;;;;;;5069845;28;20038;-65
2023/03/25 14:10:13;;;;;;;8.73;3.03;;;;;;;;;;5072610;28;20025;-65
2023/03/25 14:12:45;;;;;;;13.68;2.88;;;;;;;;;;5073835;28;20051;-63
2023/03/25 14:15:13;;;;;;;11.45;2.67;;;;;;;;;;5073535;28;20489;-64
2023/03/25 14:17:40;;;;;;;8.45;2.60;;;;;;;;;;5073171;28;20043;-67
2023/03/25 14:20:09;;;;;;;15.30;3.15;;;;;;;;;;5073538;28;20031;-69
2023/03/25 14:22:38;;;;;;;15.93;3.28;;;;;;;;;;5073290;28;20405;-66
2023/03/25 14:25:05;;;;;;;9.88;3.00;;;;;;;;;;5073467;28;20492;-69
2023/03/25 14:27:32;;;;;;;10.60;3.03;;;;;;;;;;5072558;28;20079;-63
2023/03/25 14:29:59;;;;;;;10.30;2.67;;;;;;;;;;5073635;28;20032;-72
2023/03/25 14:32:34;;;;;;;13.68;3.60;;;;;;;;;;5073912;28;20029;-69
2023/03/25 14:35:18;;;;;;;11.23;3.03;;;;;;;;;;5073456;28;20016;-72
2023/03/25 14:37:44;;;;;;;8.45;2.65;;;;;;;;;;5071868;28;20077;-70
2023/03/25 14:40:29;;;;;;;12.43;2.80;;;;;;;;;;5073572;28;20025;-71
2023/03/25 14:42:59;;;;;;;9.98;2.47;;;;;;;;;;5073607;28;20024;-72
2023/03/25 14:45:31;;;;;;;15.45;2.40;;;;;;;;;;5073666;28;20376;-72
2023/03/25 14:47:58;;;;;;;12.50;2.90;;;;;;;;;;5073334;28;20035;-63
2023/03/25 14:50:24;;;;;;;15.55;2.40;;;;;;;;;;5073097;28;20073;-69
2023/03/25 14:52:52;;;;;;;11.15;2.50;;;;;;;;;;5072781;28;20630;-62